<?xml version="1.0" encoding="UTF-8" standalone="no" ?>
<gpx xmlns="http://www.topografix.com/GPX/1/1" xmlns:xsi="http://www.w3.org/2001/XMLSchema-instance" xsi:schemaLocation="http://www.topografix.com/GPX/1/1 http://www.topografix.com/GPX/1/1/gpx.xsd" version="1.1" creator="VisuGPX - https://www.visugpx.com">
  <metadata>
    <name>Etang du Corra</name>
  </metadata>
  <trk>
    <name><![CDATA[12016850-Etang du Corra]]></name>
    <trkseg>
      <trkpt lat="48.97703" lon="2.08883">
        <ele>24</ele>
        <time>2020-09-16T21:02:28Z</time>
      </trkpt>
      <trkpt lat="48.97638" lon="2.08903">
        <ele>26</ele>
        <time>2020-09-16T21:03:56Z</time>
      </trkpt>
      <trkpt lat="48.97592" lon="2.08933">
        <ele>27</ele>
        <time>2020-09-16T21:05:03Z</time>
      </trkpt>
      <trkpt lat="48.97549" lon="2.08948">
        <ele>28</ele>
        <time>2020-09-16T21:06:02Z</time>
      </trkpt>
      <trkpt lat="48.97504" lon="2.0901">
        <ele>28</ele>
        <time>2020-09-16T21:07:23Z</time>
      </trkpt>
      <trkpt lat="48.97508" lon="2.09046">
        <ele>27</ele>
        <time>2020-09-16T21:07:55Z</time>
      </trkpt>
      <trkpt lat="48.97491" lon="2.0908">
        <ele>28</ele>
        <time>2020-09-16T21:08:33Z</time>
      </trkpt>
      <trkpt lat="48.97482" lon="2.09122">
        <ele>28</ele>
        <time>2020-09-16T21:09:11Z</time>
      </trkpt>
      <trkpt lat="48.97482" lon="2.09164">
        <ele>27</ele>
        <time>2020-09-16T21:09:48Z</time>
      </trkpt>
      <trkpt lat="48.97484" lon="2.09204">
        <ele>28</ele>
        <time>2020-09-16T21:10:23Z</time>
      </trkpt>
      <trkpt lat="48.97468" lon="2.09239">
        <ele>28</ele>
        <time>2020-09-16T21:11:01Z</time>
      </trkpt>
      <trkpt lat="48.97545" lon="2.09541">
        <ele>27</ele>
        <time>2020-09-16T21:15:44Z</time>
      </trkpt>
      <trkpt lat="48.97631" lon="2.09683">
        <ele>27</ele>
        <time>2020-09-16T21:18:34Z</time>
      </trkpt>
      <trkpt lat="48.97551" lon="2.10069">
        <ele>34</ele>
        <time>2020-09-16T21:24:28Z</time>
      </trkpt>
      <trkpt lat="48.97211" lon="2.09424">
        <ele>46</ele>
        <time>2020-09-16T21:36:33Z</time>
      </trkpt>
      <trkpt lat="48.97213" lon="2.09422">
        <ele>46</ele>
        <time>2020-09-16T21:36:36Z</time>
      </trkpt>
      <trkpt lat="48.97181" lon="2.10029">
        <ele>46</ele>
        <time>2020-09-16T21:45:29Z</time>
      </trkpt>
      <trkpt lat="48.97047" lon="2.10214">
        <ele>46</ele>
        <time>2020-09-16T21:49:31Z</time>
      </trkpt>
      <trkpt lat="48.97046" lon="2.1028">
        <ele>44</ele>
        <time>2020-09-16T21:50:28Z</time>
      </trkpt>
      <trkpt lat="48.97087" lon="2.10557">
        <ele>44</ele>
        <time>2020-09-16T21:54:37Z</time>
      </trkpt>
      <trkpt lat="48.9709" lon="2.10759">
        <ele>42</ele>
        <time>2020-09-16T21:57:34Z</time>
      </trkpt>
      <trkpt lat="48.97137" lon="2.11119">
        <ele>37</ele>
        <time>2020-09-16T22:02:56Z</time>
      </trkpt>
      <trkpt lat="48.96804" lon="2.11562">
        <ele>49</ele>
        <time>2020-09-16T22:12:46Z</time>
      </trkpt>
      <trkpt lat="48.96617" lon="2.11468">
        <ele>56</ele>
        <time>2020-09-16T22:17:09Z</time>
      </trkpt>
      <trkpt lat="48.96491" lon="2.11404">
        <ele>54</ele>
        <time>2020-09-16T22:20:06Z</time>
      </trkpt>
      <trkpt lat="48.96422" lon="2.11453">
        <ele>53</ele>
        <time>2020-09-16T22:21:47Z</time>
      </trkpt>
      <trkpt lat="48.96371" lon="2.11643">
        <ele>55</ele>
        <time>2020-09-16T22:24:47Z</time>
      </trkpt>
      <trkpt lat="48.96361" lon="2.11742">
        <ele>56</ele>
        <time>2020-09-16T22:26:15Z</time>
      </trkpt>
      <trkpt lat="48.96371" lon="2.11798">
        <ele>56</ele>
        <time>2020-09-16T22:27:06Z</time>
      </trkpt>
      <trkpt lat="48.964" lon="2.11841">
        <ele>56</ele>
        <time>2020-09-16T22:28:00Z</time>
      </trkpt>
      <trkpt lat="48.96435" lon="2.1184">
        <ele>55</ele>
        <time>2020-09-16T22:28:47Z</time>
      </trkpt>
      <trkpt lat="48.96451" lon="2.11828">
        <ele>55</ele>
        <time>2020-09-16T22:29:10Z</time>
      </trkpt>
      <trkpt lat="48.96527" lon="2.12029">
        <ele>49</ele>
        <time>2020-09-16T22:32:34Z</time>
      </trkpt>
      <trkpt lat="48.96572" lon="2.12138">
        <ele>47</ele>
        <time>2020-09-16T22:34:26Z</time>
      </trkpt>
      <trkpt lat="48.96611" lon="2.1224">
        <ele>44</ele>
        <time>2020-09-16T22:36:10Z</time>
      </trkpt>
      <trkpt lat="48.96569" lon="2.12293">
        <ele>44</ele>
        <time>2020-09-16T22:37:23Z</time>
      </trkpt>
      <trkpt lat="48.96536" lon="2.1233">
        <ele>44</ele>
        <time>2020-09-16T22:38:17Z</time>
      </trkpt>
      <trkpt lat="48.96483" lon="2.12366">
        <ele>46</ele>
        <time>2020-09-16T22:39:35Z</time>
      </trkpt>
      <trkpt lat="48.96332" lon="2.12466">
        <ele>52</ele>
        <time>2020-09-16T22:43:14Z</time>
      </trkpt>
      <trkpt lat="48.96227" lon="2.12587">
        <ele>48</ele>
        <time>2020-09-16T22:46:10Z</time>
      </trkpt>
      <trkpt lat="48.96182" lon="2.12645">
        <ele>48</ele>
        <time>2020-09-16T22:47:29Z</time>
      </trkpt>
      <trkpt lat="48.96162" lon="2.12735">
        <ele>44</ele>
        <time>2020-09-16T22:48:52Z</time>
      </trkpt>
      <trkpt lat="48.96135" lon="2.12782">
        <ele>44</ele>
        <time>2020-09-16T22:49:47Z</time>
      </trkpt>
      <trkpt lat="48.96765" lon="2.12611">
        <ele>40</ele>
        <time>2020-09-16T23:04:01Z</time>
      </trkpt>
      <trkpt lat="48.96848" lon="2.12588">
        <ele>39</ele>
        <time>2020-09-16T23:05:53Z</time>
      </trkpt>
      <trkpt lat="48.97006" lon="2.12882">
        <ele>38</ele>
        <time>2020-09-16T23:11:26Z</time>
      </trkpt>
      <trkpt lat="48.97177" lon="2.13205">
        <ele>37</ele>
        <time>2020-09-16T23:17:30Z</time>
      </trkpt>
      <trkpt lat="48.97367" lon="2.13461">
        <ele>38</ele>
        <time>2020-09-16T23:23:08Z</time>
      </trkpt>
      <trkpt lat="48.97495" lon="2.13203">
        <ele>38</ele>
        <time>2020-09-16T23:27:51Z</time>
      </trkpt>
      <trkpt lat="48.97653" lon="2.1289">
        <ele>36</ele>
        <time>2020-09-16T23:33:37Z</time>
      </trkpt>
      <trkpt lat="48.9777" lon="2.12656">
        <ele>34</ele>
        <time>2020-09-16T23:37:55Z</time>
      </trkpt>
      <trkpt lat="48.97541" lon="2.12411">
        <ele>37</ele>
        <time>2020-09-16T23:44:08Z</time>
      </trkpt>
      <trkpt lat="48.97356" lon="2.12229">
        <ele>38</ele>
        <time>2020-09-16T23:49:02Z</time>
      </trkpt>
      <trkpt lat="48.97401" lon="2.1211">
        <ele>36</ele>
        <time>2020-09-16T23:51:02Z</time>
      </trkpt>
      <trkpt lat="48.97486" lon="2.11619">
        <ele>32</ele>
        <time>2020-09-16T23:58:27Z</time>
      </trkpt>
      <trkpt lat="48.97536" lon="2.11308">
        <ele>32</ele>
        <time>2020-09-17T00:03:08Z</time>
      </trkpt>
      <trkpt lat="48.9756" lon="2.11171">
        <ele>32</ele>
        <time>2020-09-17T00:05:12Z</time>
      </trkpt>
      <trkpt lat="48.97613" lon="2.10866">
        <ele>30</ele>
        <time>2020-09-17T00:09:48Z</time>
      </trkpt>
      <trkpt lat="48.97632" lon="2.10713">
        <ele>29</ele>
        <time>2020-09-17T00:12:05Z</time>
      </trkpt>
      <trkpt lat="48.97702" lon="2.1032">
        <ele>32</ele>
        <time>2020-09-17T00:18:01Z</time>
      </trkpt>
      <trkpt lat="48.97742" lon="2.10068">
        <ele>31</ele>
        <time>2020-09-17T00:21:48Z</time>
      </trkpt>
      <trkpt lat="48.97738" lon="2.10017">
        <ele>31</ele>
        <time>2020-09-17T00:22:33Z</time>
      </trkpt>
      <trkpt lat="48.97751" lon="2.09973">
        <ele>27</ele>
        <time>2020-09-17T00:23:16Z</time>
      </trkpt>
      <trkpt lat="48.9776" lon="2.09905">
        <ele>24</ele>
        <time>2020-09-17T00:24:16Z</time>
      </trkpt>
      <trkpt lat="48.97789" lon="2.09755">
        <ele>24</ele>
        <time>2020-09-17T00:26:33Z</time>
      </trkpt>
      <trkpt lat="48.97816" lon="2.0958">
        <ele>25</ele>
        <time>2020-09-17T00:29:11Z</time>
      </trkpt>
      <trkpt lat="48.97832" lon="2.09513">
        <ele>25</ele>
        <time>2020-09-17T00:30:13Z</time>
      </trkpt>
      <trkpt lat="48.97835" lon="2.09403">
        <ele>28</ele>
        <time>2020-09-17T00:31:50Z</time>
      </trkpt>
      <trkpt lat="48.97844" lon="2.09335">
        <ele>29</ele>
        <time>2020-09-17T00:32:51Z</time>
      </trkpt>
      <trkpt lat="48.97846" lon="2.09247">
        <ele>27</ele>
        <time>2020-09-17T00:34:08Z</time>
      </trkpt>
      <trkpt lat="48.97853" lon="2.09211">
        <ele>27</ele>
        <time>2020-09-17T00:34:41Z</time>
      </trkpt>
      <trkpt lat="48.97867" lon="2.09096">
        <ele>26</ele>
        <time>2020-09-17T00:36:23Z</time>
      </trkpt>
      <trkpt lat="48.97874" lon="2.09024">
        <ele>25</ele>
        <time>2020-09-17T00:37:27Z</time>
      </trkpt>
      <trkpt lat="48.97858" lon="2.08998">
        <ele>25</ele>
        <time>2020-09-17T00:37:58Z</time>
      </trkpt>
      <trkpt lat="48.97848" lon="2.08981">
        <ele>25</ele>
        <time>2020-09-17T00:38:18Z</time>
      </trkpt>
      <trkpt lat="48.97817" lon="2.0896">
        <ele>25</ele>
        <time>2020-09-17T00:39:03Z</time>
      </trkpt>
      <trkpt lat="48.9779" lon="2.08951">
        <ele>25</ele>
        <time>2020-09-17T00:39:40Z</time>
      </trkpt>
      <trkpt lat="48.9777" lon="2.08934">
        <ele>25</ele>
        <time>2020-09-17T00:40:11Z</time>
      </trkpt>
      <trkpt lat="48.97752" lon="2.08903">
        <ele>25</ele>
        <time>2020-09-17T00:40:47Z</time>
      </trkpt>
      <trkpt lat="48.97704" lon="2.08886">
        <ele>24</ele>
        <time>2020-09-17T00:41:53Z</time>
      </trkpt>
    </trkseg>
  </trk>
</gpx>